This is the latest recevied weather packets stored in our database for station/object PY2XH-13. If no packets are shown the sender has not sent any weather packets the latest 10 day(s).
| Time | Temp. | Humidity | Pressure | Rain* | Wind** | Luminosity | Snow |
|---|---|---|---|---|---|---|---|
| 1777236364 | 27.22° C | 47% | 1026.1 hPa | - | - | - | - |
| 1777234565 | 28.33° C | 44% | 1026 hPa | - | - | - | - |
| 1777232765 | 28.33° C | 42% | 1025.8 hPa | - | - | - | - |
| 1777230964 | 28.89° C | 41% | 1025.7 hPa | - | - | - | - |
| 1777229164 | 29.44° C | 40% | 1025.5 hPa | - | - | - | - |
| 1777227364 | 28.33° C | 41% | 1025.3 hPa | - | - | - | - |
| 1777225564 | 28.33° C | 44% | 1025.5 hPa | - | - | - | - |
| 1777223765 | 28.33° C | 44% | 1025.8 hPa | - | - | - | - |
| 1777221965 | 27.22° C | 46% | 1026 hPa | - | - | - | - |
| 1777220164 | 27.78° C | 46% | 1026.4 hPa | - | - | - | - |
| 1777218364 | 26.67° C | 48% | 1026.6 hPa | - | - | - | - |
| 1777216564 | 26.11° C | 50% | 1027.2 hPa | - | - | - | - |
| 1777214765 | 26.11° C | 50% | 1027.5 hPa | - | - | - | - |
| 1777212964 | 25.56° C | 53% | 1028.1 hPa | - | - | - | - |
| 1777211164 | 25° C | 54% | 1028.8 hPa | - | - | - | - |
| 1777209365 | 24.44° C | 55% | 1029 hPa | - | - | - | - |
| 1777207565 | 24.44° C | 56% | 1029.1 hPa | - | - | - | - |
| 1777205765 | 24.44° C | 56% | 1029.1 hPa | - | - | - | - |
| 1777203965 | 23.33° C | 57% | 1029.1 hPa | - | - | - | - |
| 1777202164 | 23.33° C | 58% | 1029 hPa | - | - | - | - |
| 1777200364 | 22.78° C | 59% | 1028.7 hPa | - | - | - | - |
| 1777198565 | 23.89° C | 60% | 1028.5 hPa | - | - | - | - |
| 1777196765 | 23.89° C | 61% | 1028.1 hPa | - | - | - | - |
| 1777194964 | 23.33° C | 62% | 1027.7 hPa | - | - | - | - |
| 1777193164 | 23.89° C | 62% | 1027.2 hPa | - | - | - | - |
* Rain since midnight (hover to see other rain measurements)
** Current wind speed in m/s (hover to see current wind gust speed)